CYYHCYGT

Guest
Details From CYYH - TALOYOAK
To CYGT - Igloolik
Flight Number -
Tags generated
Created
Modified
Stats Distance 258 nm / 478 km
Max Altitude 27,200 ft / 8,291 m
Waypoints 4
Social Downloads 0
Likes 0
Share VATSIM

Download

Looking for another format? Having issues loading an existing format? Contact us
Advertisement - Login to hide

Notes

Basic altitude profile: - Ascent Rate: 300ft/min - Ascent Speed: 120kts - Cruise Altitude: 30ft - Cruise Speed: 160kts - Descent Rate: 600ft/min - Descent Speed: 160kts Options: - Use NATs: no - Use PACOTS: no - Use low airways: no - Use high airways: no

Route

CYYH 7000N09000W 7000N08500W CYGT

ID Type Via Altitude (ft/m) Position (lat/lon) Dist (leg/tot) Name
O CYYH APT - 0 / 0 69.54611 / -93.57611 - / 0 nm TALOYOAK
7000N09000W LATLON - 27,200 / 8,291 70.00000 / -90.00000 79 / 79 nm
7000N08500W LATLON - 15,400 / 4,694 70.00000 / -85.00000 102 / 181 nm
O CYGT APT - 0 / 0 69.36482 / -81.81709 76 / 258 nm Igloolik

Altitude Profile

Advertisement - Login to hide

Weather


0- 5 10 15 20 25 30 35+ Temperature / °C

Clouds and Precipitation
Forecast for 2018-12-19 06:00 UTC. Updated an hour ago

Ground ~20,000 ft ~40,000 ft Winds

CYYH

Details ICAO CYYH (YYH)
Name TALOYOAK
Region Canada
Timezone America/Cambridge_Bay (UTC-7.0)
Stats Elevation 92 ft / 28 m (AMSL)
Location 69.546100° -93.576100°
Runways 1
Magnetic Variation 12.258° W

METAR

CYYH 190400Z 13003KT 15SM IC SKC M35/M40 A2985 RMK FROIN SLP115

Decode

TAF

TAF CYYH 182339Z 1900/1912 03005KT P6SM IC FEW050 RMK NXT FCST BY 190600Z

Decode

Departure Runways

ID Width Length Bearing (true/mag) Surface Threshold Overrun Markings Lighting
15T 100 ft / 30 m 4,008 ft / 1,222 m 151.85° / 164.11° GRAVEL 0 ft / 0 m 0 ft / 0 m VISUAL EDGE THRESHOLD REIL-OMNI
33T 100 ft / 30 m 4,008 ft / 1,222 m 331.87° / 344.12° GRAVEL 0 ft / 0 m 0 ft / 0 m VISUAL EDGE THRESHOLD REIL-OMNI

CYGT

Details ICAO CYGT (YGT)
Name Igloolik
Region Canada
Timezone America/Iqaluit (UTC-5.0)
Stats Elevation 98 ft / 30 m (AMSL)
Location 69.364800° -81.817100°
Runways 1
Magnetic Variation 27.288° W

METAR

Not found

TAF

TAF CYGT 181838Z 1819/1822 34010KT P6SM FEW090 BKN130 TEMPO 1819/1822 BKN080 RMK NXT FCST WILL BE ISSUED AT 191145Z

Decode

Destination Runways

ID Width Length Bearing (true/mag) Surface Threshold Overrun Markings Lighting
15 98 ft / 30 m 4,502 ft / 1,372 m 145.64° / 172.92° DIRT 0 ft / 0 m 0 ft / 0 m NONE EDGE THRESHOLD
33 98 ft / 30 m 4,502 ft / 1,372 m 325.65° / 352.94° DIRT 0 ft / 0 m 0 ft / 0 m NONE EDGE THRESHOLD

Popular Alternatives